Time;durP1;ratioP1;P1;durP2;ratioP2;P2;SDS_P1;SDS_P2;PMS_P1;PMS_P2;Temp;Humidity;BMP_temperature;BMP_pressure;BME280_temperature;BME280_humidity;BME280_pressure;Samples;Min_cycle;Max_cycle;Signal;HPM_P1;HPM_P2
2022/11/20 00:02:17;;;;;;;8.50;7.70;;;0.50;99.90;;;;;;4980068;28;20520;-50
2022/11/20 00:04:44;;;;;;;9.43;8.53;;;0.50;99.90;;;;;;4973830;28;20489;-50
2022/11/20 00:07:10;;;;;;;10.93;9.17;;;0.50;99.90;;;;;;4990996;28;20935;-50
2022/11/20 00:09:37;;;;;;;9.33;8.43;;;0.40;99.90;;;;;;4980497;28;20554;-50
2022/11/20 00:12:04;;;;;;;9.17;8.30;;;0.50;99.90;;;;;;4973818;28;20524;-51
2022/11/20 00:14:30;;;;;;;9.07;8.27;;;0.40;99.90;;;;;;4970611;28;20469;-49
2022/11/20 00:16:57;;;;;;;10.67;8.57;;;0.40;99.90;;;;;;4966955;28;20478;-49
2022/11/20 00:19:25;;;;;;;10.37;9.27;;;0.50;99.90;;;;;;4973078;28;20469;-49
2022/11/20 00:21:53;;;;;;;9.10;8.30;;;0.50;99.90;;;;;;4971522;28;20497;-49
2022/11/20 00:24:21;;;;;;;9.20;8.30;;;0.40;99.90;;;;;;4971342;28;20481;-49
2022/11/20 00:26:47;;;;;;;9.77;8.87;;;0.50;99.90;;;;;;4970726;28;20533;-50
2022/11/20 00:29:14;;;;;;;9.40;8.50;;;0.40;99.90;;;;;;4969090;28;20839;-49
2022/11/20 00:31:41;;;;;;;8.83;6.80;;;0.40;99.90;;;;;;4969560;28;21026;-50
2022/11/20 00:34:07;;;;;;;8.93;8.03;;;0.40;99.90;;;;;;4972387;28;20519;-50
2022/11/20 00:36:35;;;;;;;9.37;8.47;;;0.40;99.90;;;;;;4966428;28;20458;-49
2022/11/20 00:39:02;;;;;;;10.07;9.03;;;0.30;99.90;;;;;;4961945;28;20532;-50
2022/11/20 00:41:30;;;;;;;11.23;10.03;;;0.40;99.90;;;;;;4972440;28;20486;-49
2022/11/20 00:43:57;;;;;;;9.50;8.50;;;0.30;99.90;;;;;;4964423;28;20548;-49
2022/11/20 00:46:25;;;;;;;9.80;8.90;;;0.30;99.90;;;;;;4973331;28;20445;-50
2022/11/20 00:48:52;;;;;;;10.90;9.80;;;0.30;99.90;;;;;;4972112;28;20457;-49
2022/11/20 00:51:21;;;;;;;9.00;8.10;;;0.30;99.90;;;;;;4971810;28;20465;-49
2022/11/20 00:53:50;;;;;;;11.20;8.87;;;0.30;99.90;;;;;;4971463;28;20453;-48
2022/11/20 00:56:18;;;;;;;11.23;9.20;;;0.30;99.90;;;;;;4972434;28;20998;-49
2022/11/20 00:58:49;;;;;;;11.40;8.40;;;0.30;99.90;;;;;;4972400;28;20469;-49
2022/11/20 01:01:19;;;;;;;11.00;9.10;;;0.20;99.90;;;;;;4966516;28;20457;-49
2022/11/20 01:03:47;;;;;;;9.97;8.00;;;0.20;99.90;;;;;;4969224;28;20478;-49
2022/11/20 01:06:15;;;;;;;9.87;8.87;;;0.20;99.90;;;;;;4973029;28;20449;-49
2022/11/20 01:08:42;;;;;;;10.07;8.60;;;0.20;99.90;;;;;;4972242;28;20532;-50
2022/11/20 01:11:12;;;;;;;9.93;8.93;;;0.20;99.90;;;;;;4971354;28;20469;-50
2022/11/20 01:13:39;;;;;;;10.57;8.70;;;0.20;99.90;;;;;;4965326;28;20542;-48
2022/11/20 01:16:07;;;;;;;10.50;9.13;;;0.20;99.90;;;;;;4970984;28;20466;-48
2022/11/20 01:18:34;;;;;;;9.67;8.67;;;0.20;99.90;;;;;;4972025;28;20476;-50
2022/11/20 01:21:02;;;;;;;10.50;8.47;;;0.20;99.90;;;;;;4969713;28;20465;-50
2022/11/20 01:23:31;;;;;;;10.40;9.20;;;0.20;99.90;;;;;;5001302;23;20504;-55
2022/11/20 01:26:01;;;;;;;9.70;8.67;;;0.20;99.90;;;;;;4977382;28;20495;-55
2022/11/20 01:28:29;;;;;;;8.97;8.10;;;0.20;99.90;;;;;;4991375;28;20842;-54
2022/11/20 01:30:56;;;;;;;11.03;8.80;;;0.20;99.90;;;;;;4990360;28;20514;-54
2022/11/20 01:33:23;;;;;;;10.70;9.57;;;0.20;99.90;;;;;;4982173;28;20536;-54
2022/11/20 01:35:49;;;;;;;10.77;9.40;;;0.20;99.90;;;;;;4990308;28;20461;-54
2022/11/20 01:38:17;;;;;;;10.17;9.17;;;0.20;99.90;;;;;;4988493;28;20535;-54
2022/11/20 01:40:43;;;;;;;9.63;8.60;;;0.20;99.90;;;;;;4987169;28;20472;-56
2022/11/20 01:43:22;;;;;;;10.40;8.73;;;0.20;99.90;;;;;;4989782;28;20993;-55
2022/11/20 01:46:16;;;;;;;13.33;8.70;;;0.20;99.90;;;;;;4981428;28;20559;-54
2022/11/20 01:48:52;;;;;;;10.50;8.93;;;0.20;99.90;;;;;;4978960;28;20497;-54
2022/11/20 01:51:27;;;;;;;10.60;9.50;;;0.20;99.90;;;;;;4990272;28;20523;-54
2022/11/20 01:53:55;;;;;;;12.03;9.50;;;0.20;99.90;;;;;;4981868;28;20481;-54
2022/11/20 01:56:23;;;;;;;9.87;8.30;;;0.20;99.90;;;;;;4984729;28;20464;-55
2022/11/20 01:58:53;;;;;;;9.83;8.53;;;0.20;99.90;;;;;;4990994;28;20958;-55
2022/11/20 02:01:21;;;;;;;10.83;9.43;;;0.20;99.90;;;;;;4986021;28;20476;-54
2022/11/20 02:03:49;;;;;;;10.70;8.60;;;0.20;99.90;;;;;;4990087;28;21119;-56
2022/11/20 02:06:24;;;;;;;9.67;8.63;;;0.20;99.90;;;;;;4992351;28;20970;-53
2022/11/20 02:08:52;;;;;;;11.03;8.90;;;0.20;99.90;;;;;;4986625;28;20529;-55
2022/11/20 02:11:18;;;;;;;9.73;8.73;;;0.20;99.90;;;;;;4991230;28;20942;-55
2022/11/20 02:13:44;;;;;;;10.33;9.20;;;0.20;99.90;;;;;;4994713;28;20484;-55
2022/11/20 02:16:15;;;;;;;9.60;8.70;;;0.20;99.90;;;;;;4987824;28;20492;-55
2022/11/20 02:18:45;;;;;;;10.70;8.30;;;0.20;99.90;;;;;;4992213;28;20467;-55
2022/11/20 02:21:22;;;;;;;10.27;9.10;;;0.20;99.90;;;;;;4979605;28;20472;-55
2022/11/20 02:24:10;;;;;;;10.13;8.50;;;0.20;99.90;;;;;;4980712;28;20483;-53
2022/11/20 02:26:43;;;;;;;9.93;8.93;;;0.20;99.90;;;;;;4988179;28;20464;-54
2022/11/20 02:29:10;;;;;;;9.60;8.60;;;0.20;99.90;;;;;;4990520;28;20511;-54
2022/11/20 02:31:39;;;;;;;10.53;8.93;;;0.20;99.90;;;;;;4992976;28;20460;-55
2022/11/20 02:34:05;;;;;;;9.80;8.80;;;0.20;99.90;;;;;;4979638;28;20934;-55
2022/11/20 02:36:33;;;;;;;10.80;9.40;;;0.30;99.90;;;;;;4988616;28;20535;-54
2022/11/20 02:39:00;;;;;;;12.13;7.77;;;0.20;99.90;;;;;;4981472;28;20519;-55
2022/11/20 02:41:33;;;;;;;12.57;9.30;;;0.20;99.90;;;;;;4982893;28;20465;-54
2022/11/20 02:44:00;;;;;;;10.00;9.00;;;0.10;99.90;;;;;;4990765;28;20488;-55
2022/11/20 02:46:27;;;;;;;11.33;9.23;;;0.10;99.90;;;;;;4990230;28;20539;-56
2022/11/20 02:48:53;;;;;;;10.80;9.47;;;0.10;99.90;;;;;;4989186;28;20500;-55
2022/11/20 02:51:20;;;;;;;11.00;8.63;;;0.10;99.90;;;;;;4991021;28;20487;-56
2022/11/20 02:53:46;;;;;;;11.60;10.40;;;0.20;99.90;;;;;;4989907;28;20516;-54
2022/11/20 02:56:13;;;;;;;10.10;9.10;;;0.20;99.90;;;;;;4986540;28;20511;-55
2022/11/20 02:58:41;;;;;;;9.70;8.80;;;0.20;99.90;;;;;;4984936;28;20464;-55
2022/11/20 03:01:08;;;;;;;11.70;10.10;;;0.20;99.90;;;;;;4980262;28;20496;-54
2022/11/20 03:03:34;;;;;;;10.20;8.90;;;0.20;99.90;;;;;;4980536;28;20491;-56
2022/11/20 03:06:01;;;;;;;12.20;9.80;;;0.20;99.90;;;;;;4990070;28;20540;-56
2022/11/20 03:08:28;;;;;;;10.30;8.93;;;0.20;99.90;;;;;;4983458;28;20454;-54
2022/11/20 03:10:54;;;;;;;11.60;10.00;;;0.10;99.90;;;;;;4988106;28;20461;-54
2022/11/20 03:13:21;;;;;;;12.10;9.73;;;0.10;99.90;;;;;;4988003;28;20605;-55
2022/11/20 03:15:49;;;;;;;14.23;10.03;;;0.20;99.90;;;;;;4990768;28;20460;-55
2022/11/20 03:18:15;;;;;;;11.73;10.20;;;0.20;99.90;;;;;;4993887;28;20539;-55
2022/11/20 03:20:42;;;;;;;16.80;9.60;;;0.20;99.90;;;;;;4991658;28;20484;-55
2022/11/20 03:23:08;;;;;;;14.33;10.57;;;0.10;99.90;;;;;;4991747;28;20558;-55
2022/11/20 03:25:35;;;;;;;15.03;10.00;;;0.10;99.90;;;;;;4991587;28;20817;-55
2022/11/20 03:28:01;;;;;;;12.23;10.13;;;0.10;99.90;;;;;;4985743;28;20575;-54
2022/11/20 03:30:28;;;;;;;12.57;11.27;;;0.10;99.90;;;;;;4993344;28;20530;-55
2022/11/20 03:32:56;;;;;;;12.53;11.23;;;0.10;99.90;;;;;;4989918;28;20520;-54
2022/11/20 03:35:22;;;;;;;11.90;10.67;;;0.10;99.90;;;;;;4993366;28;20981;-55
2022/11/20 03:37:49;;;;;;;11.83;10.10;;;0.00;99.90;;;;;;4990611;28;20543;-56
2022/11/20 03:40:16;;;;;;;11.93;10.67;;;0.00;99.90;;;;;;4991872;28;20550;-54
2022/11/20 03:42:48;;;;;;;12.63;9.93;;;0.10;99.90;;;;;;4977405;28;20485;-54
2022/11/20 03:45:16;;;;;;;10.60;9.40;;;0.00;99.90;;;;;;4993699;28;20484;-55
2022/11/20 03:47:42;;;;;;;15.50;10.53;;;0.00;99.90;;;;;;4992856;28;20468;-55
2022/11/20 03:50:13;;;;;;;12.90;10.90;;;0.00;99.90;;;;;;4991093;28;20469;-56
2022/11/20 03:52:39;;;;;;;11.53;10.33;;;0.00;99.90;;;;;;4992284;28;20484;-55
2022/11/20 03:55:07;;;;;;;11.90;10.33;;;0.00;99.90;;;;;;4979038;28;20531;-54
2022/11/20 03:57:34;;;;;;;12.70;11.10;;;0.10;99.90;;;;;;4992571;28;20496;-55
2022/11/20 04:00:00;;;;;;;14.83;11.33;;;0.10;99.90;;;;;;4986720;28;20527;-55
2022/11/20 04:02:27;;;;;;;15.03;10.20;;;0.00;99.90;;;;;;4987139;28;20520;-55
2022/11/20 04:04:53;;;;;;;11.70;10.33;;;0.10;99.90;;;;;;4988733;28;20541;-54
2022/11/20 04:07:21;;;;;;;14.63;10.43;;;0.10;99.90;;;;;;4986493;28;20524;-54
2022/11/20 04:09:48;;;;;;;11.73;10.53;;;0.10;99.90;;;;;;4989669;28;20465;-55
2022/11/20 04:12:14;;;;;;;13.93;10.67;;;0.10;99.90;;;;;;4986703;28;20904;-54
2022/11/20 04:14:41;;;;;;;13.43;12.03;;;0.10;99.90;;;;;;4988088;28;20567;-56
2022/11/20 04:17:07;;;;;;;16.53;10.90;;;0.10;99.90;;;;;;4981435;28;20475;-54
2022/11/20 04:19:34;;;;;;;16.53;11.63;;;0.10;99.90;;;;;;4989810;28;20461;-56
2022/11/20 04:22:01;;;;;;;13.07;10.43;;;0.20;99.90;;;;;;4984065;28;20513;-55
2022/11/20 04:24:28;;;;;;;16.47;12.03;;;0.10;99.90;;;;;;4986462;28;20521;-55
2022/11/20 04:26:55;;;;;;;13.13;11.50;;;0.10;99.90;;;;;;4992226;28;20555;-56
2022/11/20 04:29:22;;;;;;;13.87;10.87;;;0.10;99.90;;;;;;4992473;28;20445;-55
2022/11/20 04:31:48;;;;;;;13.50;11.90;;;0.10;99.90;;;;;;4992155;28;20515;-55
2022/11/20 04:34:15;;;;;;;17.30;12.93;;;0.00;99.90;;;;;;4992331;28;20848;-54
2022/11/20 04:36:42;;;;;;;14.83;11.80;;;0.00;99.90;;;;;;4981835;28;20564;-54
2022/11/20 04:39:13;;;;;;;14.93;12.20;;;0.10;99.90;;;;;;4981084;28;20453;-54
2022/11/20 04:41:41;;;;;;;12.93;11.47;;;0.10;99.90;;;;;;4982651;28;20471;-55
2022/11/20 04:44:08;;;;;;;15.20;11.77;;;0.10;99.90;;;;;;4987902;28;20525;-54
2022/11/20 04:46:36;;;;;;;14.30;11.10;;;0.10;99.90;;;;;;4990983;28;20993;-54
2022/11/20 04:49:03;;;;;;;12.80;11.23;;;0.00;99.90;;;;;;4989899;28;20465;-54
2022/11/20 04:51:30;;;;;;;17.33;12.00;;;0.00;99.90;;;;;;4985219;28;20532;-55
2022/11/20 04:53:56;;;;;;;14.70;12.07;;;-0.10;99.90;;;;;;4977517;28;20508;-54
2022/11/20 04:56:23;;;;;;;13.57;11.03;;;-0.10;99.90;;;;;;4986363;28;20488;-54
2022/11/20 04:58:51;;;;;;;12.97;11.57;;;-0.10;99.90;;;;;;4988941;28;20941;-55
2022/11/20 05:01:20;;;;;;;14.17;11.37;;;-0.20;99.90;;;;;;4988401;28;20531;-56
2022/11/20 05:03:47;;;;;;;12.47;11.17;;;-0.20;99.90;;;;;;4985629;28;20565;-54
2022/11/20 05:06:16;;;;;;;13.90;11.70;;;-0.20;99.90;;;;;;4981411;28;20543;-56
2022/11/20 05:08:43;;;;;;;16.87;11.77;;;-0.20;99.90;;;;;;4984176;28;20491;-56
2022/11/20 05:11:11;;;;;;;13.67;12.13;;;-0.20;99.90;;;;;;4989171;28;20578;-55
2022/11/20 05:13:38;;;;;;;16.27;11.87;;;-0.20;99.90;;;;;;4987287;28;21017;-55
2022/11/20 05:16:08;;;;;;;15.17;12.20;;;-0.20;99.90;;;;;;4986889;28;20519;-56
2022/11/20 05:18:36;;;;;;;17.53;13.43;;;-0.20;99.90;;;;;;4987746;28;20464;-56
2022/11/20 05:21:03;;;;;;;15.43;12.73;;;-0.20;99.90;;;;;;4973593;28;20465;-55
2022/11/20 05:23:31;;;;;;;16.07;12.50;;;-0.20;99.90;;;;;;4985964;28;20582;-55
2022/11/20 05:25:59;;;;;;;15.47;11.83;;;-0.20;99.90;;;;;;4986126;28;20571;-54
2022/11/20 05:28:26;;;;;;;12.50;11.20;;;-0.20;99.90;;;;;;4982859;28;20515;-56
2022/11/20 05:30:53;;;;;;;14.30;12.10;;;-0.20;99.90;;;;;;4986873;28;20566;-54
2022/11/20 05:33:21;;;;;;;15.00;12.40;;;-0.20;99.90;;;;;;4990882;28;20871;-56
2022/11/20 05:35:49;;;;;;;13.37;11.97;;;-0.30;99.90;;;;;;4981814;28;20547;-54
2022/11/20 05:38:16;;;;;;;13.83;11.57;;;-0.20;99.90;;;;;;4991067;28;20461;-54
2022/11/20 05:40:42;;;;;;;14.13;11.47;;;-0.20;99.90;;;;;;4990212;28;20461;-54
2022/11/20 05:43:09;;;;;;;16.23;12.57;;;-0.20;99.90;;;;;;4989692;28;20480;-54
2022/11/20 05:45:35;;;;;;;15.00;11.67;;;-0.20;99.90;;;;;;4989592;28;20578;-55
2022/11/20 05:48:02;;;;;;;16.20;13.77;;;-0.20;99.90;;;;;;4989935;28;20472;-55
2022/11/20 05:50:30;;;;;;;17.73;12.20;;;-0.20;99.90;;;;;;4989270;28;20460;-55
2022/11/20 05:52:59;;;;;;;16.70;13.03;;;-0.20;99.90;;;;;;4991467;28;20460;-54
2022/11/20 05:55:25;;;;;;;16.10;12.03;;;-0.20;99.90;;;;;;4989522;28;20488;-55
2022/11/20 05:57:54;;;;;;;15.23;12.27;;;-0.20;99.90;;;;;;4990253;28;20441;-55
2022/11/20 06:00:20;;;;;;;17.70;13.17;;;-0.20;99.90;;;;;;4986733;28;20586;-54
2022/11/20 06:02:47;;;;;;;15.13;12.40;;;-0.20;99.90;;;;;;4986433;28;20508;-54
2022/11/20 06:05:14;;;;;;;14.27;11.93;;;-0.20;99.90;;;;;;4987960;28;20484;-54
2022/11/20 06:07:41;;;;;;;13.30;11.70;;;-0.30;99.90;;;;;;4989722;28;20488;-54
2022/11/20 06:10:09;;;;;;;16.40;12.27;;;-0.30;99.90;;;;;;4977155;28;20519;-54
2022/11/20 06:12:35;;;;;;;14.00;12.03;;;-0.20;99.90;;;;;;4989406;28;20509;-54
2022/11/20 06:15:02;;;;;;;16.63;12.50;;;-0.20;99.90;;;;;;4982050;28;20982;-55
2022/11/20 06:17:29;;;;;;;17.60;12.87;;;-0.20;99.90;;;;;;4990035;28;20777;-55
2022/11/20 06:19:55;;;;;;;14.77;12.13;;;-0.20;99.90;;;;;;4989293;28;20493;-55
2022/11/20 06:22:22;;;;;;;14.80;12.23;;;-0.20;99.90;;;;;;4982763;28;20566;-54
2022/11/20 06:24:50;;;;;;;20.27;12.87;;;-0.20;99.90;;;;;;4988771;28;20492;-54
2022/11/20 06:27:17;;;;;;;15.80;12.07;;;-0.20;99.90;;;;;;4985352;28;20482;-54
2022/11/20 06:29:43;;;;;;;15.30;11.10;;;-0.10;99.90;;;;;;4985406;28;20475;-54
2022/11/20 06:32:10;;;;;;;16.63;12.70;;;-0.10;99.90;;;;;;4984303;28;20512;-54
2022/11/20 06:34:36;;;;;;;16.53;12.60;;;-0.10;99.90;;;;;;4986941;28;20461;-54
2022/11/20 06:37:03;;;;;;;14.40;12.03;;;-0.10;99.90;;;;;;4980212;28;20581;-56
2022/11/20 06:39:30;;;;;;;14.70;11.30;;;-0.10;99.90;;;;;;4988923;28;21349;-56
2022/11/20 06:41:58;;;;;;;13.47;11.83;;;-0.10;99.90;;;;;;4989438;28;20834;-56
2022/11/20 06:44:24;;;;;;;15.83;12.70;;;-0.10;99.90;;;;;;4987439;28;20840;-55
2022/11/20 06:46:51;;;;;;;25.50;13.77;;;-0.10;99.90;;;;;;4983689;28;20835;-53
2022/11/20 06:49:17;;;;;;;13.90;12.43;;;-0.10;99.90;;;;;;4985039;28;20465;-55
2022/11/20 06:51:44;;;;;;;15.10;12.57;;;0.00;99.90;;;;;;4981397;28;20461;-55
2022/11/20 06:54:10;;;;;;;13.93;11.60;;;0.00;99.90;;;;;;4989374;28;20554;-55
2022/11/20 06:56:37;;;;;;;12.43;10.60;;;-0.10;99.90;;;;;;4994023;28;20472;-55
2022/11/20 06:59:06;;;;;;;13.17;11.77;;;0.00;99.90;;;;;;4992444;28;20514;-56
2022/11/20 07:01:33;;;;;;;13.40;11.70;;;-0.10;99.90;;;;;;4986672;28;20489;-55
2022/11/20 07:04:00;;;;;;;14.90;12.73;;;0.00;99.90;;;;;;4981936;28;20524;-55
2022/11/20 07:06:26;;;;;;;17.33;12.30;;;0.00;99.90;;;;;;4989408;28;20985;-55
2022/11/20 07:08:53;;;;;;;15.30;12.87;;;0.00;99.90;;;;;;4992824;28;21542;-55
2022/11/20 07:11:20;;;;;;;15.23;12.40;;;0.10;99.90;;;;;;4991713;28;20985;-53
2022/11/20 07:13:47;;;;;;;13.23;11.77;;;0.00;99.90;;;;;;4989473;28;20272;-55
2022/11/20 07:16:15;;;;;;;15.50;13.00;;;0.00;99.90;;;;;;4988981;28;20529;-54
2022/11/20 07:18:42;;;;;;;13.03;11.10;;;0.00;99.90;;;;;;4988939;28;20500;-54
2022/11/20 07:21:11;;;;;;;14.20;12.60;;;0.10;99.90;;;;;;4993959;28;20502;-54
2022/11/20 07:23:38;;;;;;;16.10;12.80;;;0.10;99.90;;;;;;4992784;28;20577;-52
2022/11/20 07:26:05;;;;;;;16.37;13.23;;;0.10;99.90;;;;;;4989054;28;20517;-51
2022/11/20 07:28:31;;;;;;;14.37;12.97;;;0.10;99.90;;;;;;4987537;28;20496;-51
2022/11/20 07:30:58;;;;;;;16.83;13.07;;;0.10;99.90;;;;;;4984885;28;20900;-51
2022/11/20 07:33:26;;;;;;;16.60;13.40;;;0.20;99.90;;;;;;4986633;28;20512;-51
2022/11/20 07:35:53;;;;;;;18.27;13.33;;;0.20;99.90;;;;;;4989753;28;20492;-51
2022/11/20 07:38:19;;;;;;;17.93;14.53;;;0.20;99.90;;;;;;4979499;28;20523;-51
2022/11/20 07:40:46;;;;;;;18.30;14.30;;;0.20;99.90;;;;;;4991684;28;20457;-51
2022/11/20 07:43:12;;;;;;;13.73;12.23;;;0.20;99.90;;;;;;4987092;28;20551;-51
2022/11/20 07:45:39;;;;;;;15.40;12.50;;;0.20;99.90;;;;;;4992415;28;20472;-51
2022/11/20 07:48:06;;;;;;;18.07;14.00;;;0.30;99.90;;;;;;4992556;28;20464;-51
2022/11/20 07:50:34;;;;;;;17.50;12.90;;;0.30;99.90;;;;;;4989338;28;20492;-51
2022/11/20 07:53:04;;;;;;;18.10;14.40;;;0.30;99.90;;;;;;4988069;28;20495;-51
2022/11/20 07:55:32;;;;;;;15.10;13.50;;;0.30;99.90;;;;;;4983211;28;20464;-51
2022/11/20 07:57:58;;;;;;;18.23;12.90;;;0.30;99.90;;;;;;4988339;28;20966;-51
2022/11/20 08:00:26;;;;;;;17.03;13.50;;;0.30;99.90;;;;;;4990187;28;21044;-51
2022/11/20 08:02:53;;;;;;;17.17;13.17;;;0.30;99.90;;;;;;4988697;28;20476;-51
2022/11/20 08:05:19;;;;;;;21.73;15.23;;;0.30;99.90;;;;;;4986177;28;20880;-51
2022/11/20 08:07:47;;;;;;;17.10;14.30;;;0.40;99.90;;;;;;4988076;28;20535;-51
2022/11/20 08:10:16;;;;;;;18.97;14.63;;;0.40;99.90;;;;;;4983404;28;20461;-51
2022/11/20 08:15:31;;;;;;;18.60;13.87;;;0.30;99.90;;;;;;4994866;28;20447;-51
2022/11/20 08:18:02;;;;;;;19.77;13.97;;;0.40;99.90;;;;;;4987879;28;20491;-50
2022/11/20 08:20:29;;;;;;;22.43;14.27;;;0.50;99.90;;;;;;4984071;28;20602;-53
2022/11/20 08:23:00;;;;;;;15.60;12.80;;;0.40;99.90;;;;;;4988399;28;20488;-51
2022/11/20 08:25:27;;;;;;;16.63;13.30;;;0.50;99.90;;;;;;4988936;28;20460;-54
2022/11/20 08:27:54;;;;;;;16.23;13.40;;;0.40;99.90;;;;;;4988958;28;20485;-57
2022/11/20 08:30:21;;;;;;;16.90;14.00;;;0.50;99.90;;;;;;4987168;28;20571;-51
2022/11/20 08:32:47;;;;;;;19.17;14.03;;;0.50;99.90;;;;;;4986700;28;20534;-51
2022/11/20 08:35:14;;;;;;;19.67;14.23;;;0.50;99.90;;;;;;4980656;28;20893;-51
2022/11/20 08:37:41;;;;;;;18.50;14.90;;;0.50;99.90;;;;;;4985413;28;20459;-51
2022/11/20 08:40:11;;;;;;;17.90;14.27;;;0.50;99.90;;;;;;4986848;28;21120;-52
2022/11/20 08:42:46;;;;;;;15.60;13.43;;;0.50;99.90;;;;;;4989208;28;20496;-52
2022/11/20 08:45:12;;;;;;;18.70;14.73;;;0.40;99.90;;;;;;4985895;28;20484;-52
2022/11/20 08:47:39;;;;;;;16.40;13.37;;;0.40;99.90;;;;;;4992028;28;20563;-51
2022/11/20 08:50:06;;;;;;;16.90;13.97;;;0.50;99.90;;;;;;4988946;28;20468;-51
2022/11/20 08:52:33;;;;;;;18.93;15.10;;;0.50;99.90;;;;;;4986337;28;20456;-51
2022/11/20 08:55:00;;;;;;;22.53;16.70;;;0.40;99.90;;;;;;4992508;28;20530;-51
2022/11/20 08:57:27;;;;;;;21.43;15.80;;;0.50;99.90;;;;;;4993210;28;20487;-52
2022/11/20 08:59:54;;;;;;;19.27;14.30;;;0.50;99.90;;;;;;4993905;28;20469;-51
2022/11/20 09:02:21;;;;;;;22.03;15.87;;;0.60;99.90;;;;;;4991652;28;20488;-51
2022/11/20 09:04:48;;;;;;;17.83;14.60;;;0.60;99.90;;;;;;4994749;28;20954;-52
2022/11/20 09:07:16;;;;;;;17.20;14.17;;;0.70;99.90;;;;;;4984248;28;20855;-51
2022/11/20 09:09:42;;;;;;;17.90;14.27;;;0.70;99.90;;;;;;4986440;28;20468;-51
2022/11/20 09:12:09;;;;;;;18.40;14.67;;;0.90;99.90;;;;;;4993129;28;21073;-51
2022/11/20 09:14:37;;;;;;;21.60;17.70;;;0.90;99.90;;;;;;4992388;28;20546;-51
2022/11/20 09:17:03;;;;;;;16.27;13.10;;;1.00;99.90;;;;;;4985662;28;20963;-52
2022/11/20 09:19:30;;;;;;;19.90;15.13;;;1.10;99.90;;;;;;4986050;28;20553;-51
2022/11/20 09:21:57;;;;;;;18.70;14.83;;;0.90;99.90;;;;;;4985356;28;20472;-51
2022/11/20 09:24:23;;;;;;;19.10;14.20;;;1.10;99.90;;;;;;4988226;28;20460;-51
2022/11/20 09:26:50;;;;;;;18.67;14.83;;;1.10;99.90;;;;;;4991310;28;20476;-52
2022/11/20 09:29:16;;;;;;;17.23;14.63;;;1.10;99.90;;;;;;4994170;28;20464;-52
2022/11/20 09:31:44;;;;;;;17.77;13.50;;;1.00;99.90;;;;;;4991166;28;20538;-52
2022/11/20 09:34:11;;;;;;;18.73;14.17;;;1.00;99.90;;;;;;4998952;28;20460;-55
2022/11/20 09:36:37;;;;;;;18.47;12.80;;;1.00;99.90;;;;;;4994042;28;20454;-52
2022/11/20 09:39:05;;;;;;;21.57;14.70;;;1.00;99.90;;;;;;5002284;28;20488;-52
2022/11/20 09:41:50;;;;;;;17.13;14.03;;;1.00;99.90;;;;;;5008128;28;20581;-52
2022/11/20 09:44:30;;;;;;;18.30;13.63;;;1.10;99.90;;;;;;5005270;28;20456;-52
2022/11/20 09:47:04;;;;;;;20.40;15.97;;;1.10;99.90;;;;;;5006142;28;20481;-52
2022/11/20 09:49:38;;;;;;;21.20;14.83;;;1.10;99.90;;;;;;5000970;28;20463;-52
2022/11/20 09:52:15;;;;;;;20.23;14.20;;;1.10;99.90;;;;;;4994548;28;21059;-52
2022/11/20 09:54:41;;;;;;;23.73;13.40;;;1.00;99.90;;;;;;4986416;28;20464;-51
2022/11/20 09:57:12;;;;;;;19.77;14.83;;;1.00;99.90;;;;;;4995568;28;20507;-51
2022/11/20 09:59:41;;;;;;;16.50;14.00;;;1.00;99.90;;;;;;4990634;28;20455;-52
2022/11/20 10:02:17;;;;;;;15.33;12.93;;;0.90;99.90;;;;;;4984009;28;20480;-53
2022/11/20 10:04:48;;;;;;;19.47;12.97;;;1.00;99.90;;;;;;4984940;28;20989;-52
2022/11/20 10:07:21;;;;;;;18.53;13.27;;;1.00;99.90;;;;;;4988891;28;20483;-51
2022/11/20 10:09:53;;;;;;;18.00;15.17;;;1.00;99.90;;;;;;4981839;28;20472;-51
2022/11/20 10:12:26;;;;;;;17.40;14.53;;;0.90;99.90;;;;;;4986337;28;20539;-52
2022/11/20 10:15:11;;;;;;;17.10;13.40;;;0.90;99.90;;;;;;4987824;28;20512;-52
2022/11/20 10:18:12;;;;;;;23.13;15.63;;;0.90;99.90;;;;;;4988328;28;20519;-52
2022/11/20 10:20:47;;;;;;;17.77;13.87;;;0.90;99.90;;;;;;4986725;28;20452;-52
2022/11/20 10:23:43;;;;;;;17.30;13.33;;;1.00;99.90;;;;;;4982195;28;20492;-52
2022/11/20 10:26:21;;;;;;;16.27;13.10;;;1.00;99.90;;;;;;4964166;28;20461;-51
2022/11/20 10:29:02;;;;;;;16.33;12.40;;;1.00;99.90;;;;;;4990945;28;20518;-51
2022/11/20 10:31:32;;;;;;;18.30;13.70;;;1.10;99.90;;;;;;4986795;28;20464;-51
2022/11/20 10:34:06;;;;;;;15.00;12.80;;;1.10;99.90;;;;;;4990298;28;20589;-52
2022/11/20 10:36:37;;;;;;;16.57;12.60;;;1.10;99.90;;;;;;4997004;28;20608;-51
2022/11/20 10:39:12;;;;;;;16.53;12.23;;;1.00;99.90;;;;;;4991781;28;20463;-51
2022/11/20 10:41:42;;;;;;;17.90;13.80;;;1.10;99.90;;;;;;4988736;28;20464;-51
2022/11/20 10:44:15;;;;;;;17.40;13.13;;;1.20;99.90;;;;;;4991671;28;20484;-52
2022/11/20 10:46:45;;;;;;;18.57;14.63;;;1.20;99.90;;;;;;4989996;28;20480;-52
2022/11/20 10:49:16;;;;;;;19.20;13.10;;;1.30;99.90;;;;;;4983598;28;20453;-52
2022/11/20 10:51:53;;;;;;;20.90;13.30;;;1.40;99.90;;;;;;4987313;28;20468;-51
2022/11/20 10:54:28;;;;;;;13.90;12.23;;;1.50;99.90;;;;;;4984965;28;20519;-51
2022/11/20 10:57:01;;;;;;;15.87;13.03;;;1.40;99.90;;;;;;4985224;28;20543;-51
2022/11/20 10:59:48;;;;;;;19.73;13.90;;;1.40;99.90;;;;;;4986908;28;20492;-49
2022/11/20 11:02:17;;;;;;;19.10;13.90;;;1.30;99.80;;;;;;4988143;28;20928;-49
2022/11/20 11:04:48;;;;;;;17.33;12.50;;;1.30;99.90;;;;;;4989725;28;20460;-50
2022/11/20 11:07:18;;;;;;;19.37;13.20;;;1.20;99.90;;;;;;4988080;28;20499;-53
2022/11/20 11:09:49;;;;;;;15.63;12.10;;;1.10;99.90;;;;;;4989648;28;21794;-49
2022/11/20 11:12:16;;;;;;;14.43;12.13;;;1.10;99.90;;;;;;4986479;28;20480;-49
2022/11/20 11:14:44;;;;;;;21.20;11.17;;;1.10;99.90;;;;;;4987969;28;20464;-50
2022/11/20 11:17:22;;;;;;;16.57;12.37;;;1.00;99.90;;;;;;4987736;28;20533;-50
2022/11/20 11:20:04;;;;;;;13.40;11.57;;;0.90;99.90;;;;;;4992534;28;20460;-49
2022/11/20 11:22:32;;;;;;;14.20;12.50;;;0.90;99.90;;;;;;4990419;28;20492;-49
2022/11/20 11:24:59;;;;;;;14.13;12.23;;;0.80;99.90;;;;;;4982307;28;20557;-50
2022/11/20 11:27:26;;;;;;;17.00;12.23;;;0.80;99.90;;;;;;4984491;28;20490;-49
2022/11/20 11:30:12;;;;;;;14.47;12.07;;;0.70;99.90;;;;;;4986084;28;21016;-50
2022/11/20 11:32:39;;;;;;;12.77;11.10;;;0.70;99.90;;;;;;4987528;28;20484;-50
2022/11/20 11:35:21;;;;;;;16.70;11.30;;;0.70;99.90;;;;;;4990234;28;20533;-50
2022/11/20 11:37:48;;;;;;;16.13;12.40;;;0.70;99.90;;;;;;4991178;28;20519;-51
2022/11/20 11:40:17;;;;;;;15.27;11.50;;;0.70;99.90;;;;;;4987612;28;20576;-50
2022/11/20 11:42:47;;;;;;;16.90;12.17;;;0.80;99.90;;;;;;4981055;28;20998;-50
2022/11/20 11:45:17;;;;;;;24.80;12.10;;;0.80;99.90;;;;;;4988290;28;20628;-50
2022/11/20 11:47:47;;;;;;;16.90;12.80;;;0.90;99.90;;;;;;4991083;28;20485;-50
2022/11/20 11:50:20;;;;;;;18.20;12.63;;;0.90;99.90;;;;;;4982170;28;20948;-51
2022/11/20 11:52:54;;;;;;;15.30;12.80;;;1.00;99.90;;;;;;4989590;28;20850;-50
2022/11/20 11:55:31;;;;;;;14.13;11.07;;;1.10;99.90;;;;;;4984642;28;20550;-49
2022/11/20 11:58:09;;;;;;;13.73;11.53;;;1.10;99.90;;;;;;4985305;28;20496;-49
2022/11/20 12:00:40;;;;;;;15.37;12.23;;;1.10;99.90;;;;;;4981806;28;20468;-51
2022/11/20 12:03:13;;;;;;;14.10;11.40;;;1.20;99.90;;;;;;4989043;28;20519;-50
2022/11/20 12:05:45;;;;;;;14.10;11.97;;;1.40;99.90;;;;;;4988877;28;20527;-51
2022/11/20 12:08:18;;;;;;;17.67;12.20;;;1.40;99.90;;;;;;4988436;28;20468;-50
2022/11/20 12:10:49;;;;;;;16.20;11.10;;;1.30;99.90;;;;;;4988075;28;20546;-50
2022/11/20 12:13:26;;;;;;;13.87;11.77;;;1.40;99.90;;;;;;4986932;28;20491;-50
2022/11/20 12:15:54;;;;;;;13.63;11.50;;;1.40;99.90;;;;;;4992322;28;20464;-50
2022/11/20 12:18:23;;;;;;;11.80;10.50;;;1.50;99.90;;;;;;4990652;28;21058;-50
2022/11/20 12:21:02;;;;;;;14.80;11.53;;;1.50;99.90;;;;;;4986878;28;20461;-50
2022/11/20 12:23:36;;;;;;;12.20;10.43;;;1.60;99.90;;;;;;4989953;28;20546;-50
2022/11/20 12:26:11;;;;;;;14.93;11.70;;;1.60;99.90;;;;;;4986983;28;20518;-50
2022/11/20 12:28:52;;;;;;;14.70;10.43;;;1.70;99.90;;;;;;4987004;28;20483;-50
2022/11/20 12:31:36;;;;;;;13.40;11.23;;;1.60;80.70;;;;;;4991398;28;20453;-50
2022/11/20 12:34:23;;;;;;;13.07;10.07;;;1.60;99.90;;;;;;4990183;28;21547;-50
2022/11/20 12:36:58;;;;;;;12.40;10.13;;;1.70;99.90;;;;;;4984558;28;20489;-50
2022/11/20 12:39:36;;;;;;;12.07;10.70;;;1.50;99.90;;;;;;4984045;28;20488;-50
2022/11/20 12:45:23;;;;;;;12.80;9.50;;;1.40;99.90;;;;;;4993487;28;20559;-50
2022/11/20 12:48:13;;;;;;;11.63;10.17;;;1.50;99.90;;;;;;4985640;28;20566;-50
2022/11/20 12:50:52;;;;;;;15.40;10.57;;;1.50;99.90;;;;;;4985200;28;20464;-49
2022/11/20 12:53:29;;;;;;;11.70;10.57;;;1.60;99.90;;;;;;4985565;28;20488;-49
2022/11/20 12:56:04;;;;;;;13.10;11.20;;;1.60;99.90;;;;;;4981219;28;20523;-50